Time;durP1;ratioP1;P1;durP2;ratioP2;P2;SDS_P1;SDS_P2;PMS_P1;PMS_P2;Temp;Humidity;BMP_temperature;BMP_pressure;BME280_temperature;BME280_humidity;BME280_pressure;Samples;Min_cycle;Max_cycle;Signal;HPM_P1;HPM_P2
2023/10/23 00:01:38;;;;;;;;;;;;;;;-140.72;100.00;60700.69;5064069;28;20334;-72
2023/10/23 00:04:04;;;;;;;;;;;;;;;-140.72;100.00;60688.47;5068458;28;19960;-71
2023/10/23 00:06:29;;;;;;;;;;;;;;;-140.72;100.00;60712.88;5071684;28;19955;-71
2023/10/23 00:08:55;;;;;;;;;;;;;;;-140.72;100.00;60645.78;5072946;28;19933;-71
2023/10/23 00:11:21;;;;;;;;;;;;;;;-140.72;100.00;60735.25;5071488;28;19925;-71
2023/10/23 00:13:46;;;;;;;;;;;;;;;-140.72;100.00;60690.50;5073629;28;19924;-71
2023/10/23 00:16:11;;;;;;;;;;;;;;;-140.72;100.00;60674.25;5070740;28;19928;-71
2023/10/23 00:18:36;;;;;;;;;;;;;;;-140.72;100.00;60688.47;5075540;28;19920;-71
2023/10/23 00:21:02;;;;;;;;;;;;;;;-140.72;100.00;60688.47;5072740;28;19927;-71
2023/10/23 00:23:27;;;;;;;;;;;;;;;-140.72;100.00;60637.66;5073863;28;19943;-72
2023/10/23 00:25:52;;;;;;;;;;;;;;;-140.72;100.00;60662.03;5070729;28;19972;-71
2023/10/23 00:28:17;;;;;;;;;;;;;;;-140.72;100.00;60670.19;5072687;28;20335;-71
2023/10/23 00:30:43;;;;;;;;;;;;;;;-140.72;100.00;60633.59;5069249;28;19921;-72
2023/10/23 00:33:08;;;;;;;;;;;;;;;-140.72;100.00;60625.44;5073368;28;19924;-71
2023/10/23 00:35:34;;;;;;;;;;;;;;;-140.72;100.00;60629.50;5072698;28;19921;-71
2023/10/23 00:37:59;;;;;;;;;;;;;;;-140.72;100.00;60625.44;5072542;28;20059;-71
2023/10/23 00:40:26;;;;;;;;;;;;;;;-140.72;100.00;60641.72;5067755;28;20008;-71
2023/10/23 00:42:51;;;;;;;;;;;;;;;-140.72;100.00;60623.41;5070279;28;19916;-72
2023/10/23 00:45:16;;;;;;;;;;;;;;;-140.72;100.00;60655.94;5067559;28;20358;-72
2023/10/23 00:47:42;;;;;;;;;;;;;;;-140.72;100.00;60637.66;5072518;28;20011;-71
2023/10/23 00:50:07;;;;;;;;;;;;;;;-140.72;100.00;60605.13;5070981;28;19974;-71
2023/10/23 00:52:32;;;;;;;;;;;;;;;-140.72;100.00;60649.84;5070373;28;19920;-71
2023/10/23 00:54:58;;;;;;;;;;;;;;;-140.72;100.00;60631.53;5066817;28;19921;-72
2023/10/23 00:57:23;;;;;;;;;;;;;;;-140.72;100.00;60666.13;5070803;28;19921;-72
2023/10/23 00:59:49;;;;;;;;;;;;;;;-140.72;100.00;60649.84;5075667;28;19920;-71
2023/10/23 01:02:14;;;;;;;;;;;;;;;-140.72;100.00;60708.81;5077283;28;19923;-71
2023/10/23 01:04:56;;;;;;;;;;;;;;;-140.72;100.00;60684.41;5080859;28;20375;-72
2023/10/23 01:07:30;;;;;;;;;;;;;;;-140.72;100.00;60690.50;5076552;28;19927;-71
2023/10/23 01:09:56;;;;;;;;;;;;;;;-140.72;100.00;60708.81;5071047;28;20018;-71
2023/10/23 01:12:21;;;;;;;;;;;;;;;-140.72;100.00;60700.69;5071188;28;19964;-71
2023/10/23 01:14:47;;;;;;;;;;;;;;;-140.72;100.00;60727.13;5069094;28;19920;-72
2023/10/23 01:17:13;;;;;;;;;;;;;;;-140.72;100.00;60702.72;5064619;28;20836;-71
2023/10/23 01:19:38;;;;;;;;;;;;;;;-140.72;100.00;60723.03;5067915;28;19931;-71
2023/10/23 01:22:03;;;;;;;;;;;;;;;-140.72;100.00;60731.19;5072334;28;19921;-71
2023/10/23 01:24:30;;;;;;;;;;;;;;;-140.72;100.00;60714.91;5067298;28;19920;-71
2023/10/23 01:26:55;;;;;;;;;;;;;;;-140.72;100.00;60692.53;5068901;28;19920;-71
2023/10/23 01:29:20;;;;;;;;;;;;;;;-140.72;100.00;60721.00;5067252;28;19943;-71
2023/10/23 01:31:45;;;;;;;;;;;;;;;-140.72;100.00;60674.25;5064267;28;20383;-71
2023/10/23 01:34:11;;;;;;;;;;;;;;;-140.72;100.00;60698.66;5071589;28;19931;-72
2023/10/23 01:36:37;;;;;;;;;;;;;;;-140.72;100.00;60721.00;5058833;28;19966;-71
2023/10/23 01:39:03;;;;;;;;;;;;;;;-140.72;100.00;60672.22;5072216;28;20075;-71
2023/10/23 01:41:28;;;;;;;;;;;;;;;-140.72;100.00;60714.91;5070666;28;20015;-71
2023/10/23 01:43:53;;;;;;;;;;;;;;;-140.72;100.00;60733.22;5071901;28;19924;-72
2023/10/23 01:46:19;;;;;;;;;;;;;;;-140.72;100.00;60729.16;5066062;28;20026;-72
2023/10/23 01:48:44;;;;;;;;;;;;;;;-140.72;100.00;60708.81;5066539;28;19972;-71
2023/10/23 01:51:09;;;;;;;;;;;;;;;-140.72;100.00;60723.03;5066454;28;20406;-72
2023/10/23 01:53:35;;;;;;;;;;;;;;;-140.72;100.00;60729.16;5066586;28;20094;-71
2023/10/23 01:56:07;;;;;;;;;;;;;;;-140.72;100.00;60731.19;5066938;28;19932;-71
2023/10/23 01:58:32;;;;;;;;;;;;;;;-140.72;100.00;60747.44;5065205;28;19927;-71
2023/10/23 02:00:57;;;;;;;;;;;;;;;-140.72;100.00;60753.56;5068015;28;19924;-71
2023/10/23 02:03:23;;;;;;;;;;;;;;;-140.72;100.00;60751.50;5065604;28;20351;-71
2023/10/23 02:05:48;;;;;;;;;;;;;;;-140.72;100.00;60723.03;5071333;28;19920;-71
2023/10/23 02:08:13;;;;;;;;;;;;;;;-140.72;100.00;60751.50;5070581;28;19924;-71
2023/10/23 02:10:39;;;;;;;;;;;;;;;-140.72;100.00;60727.13;5069179;28;20298;-71
2023/10/23 02:13:04;;;;;;;;;;;;;;;-140.72;100.00;60757.63;5077611;28;19928;-71
2023/10/23 02:15:29;;;;;;;;;;;;;;;-140.72;100.00;60727.13;5072692;28;19928;-71
2023/10/23 02:17:55;;;;;;;;;;;;;;;-140.72;100.00;60721.00;5069998;28;19977;-71
2023/10/23 02:20:22;;;;;;;;;;;;;;;-140.72;100.00;60708.81;5068502;28;19921;-71
2023/10/23 02:22:47;;;;;;;;;;;;;;;-140.72;100.00;60725.09;5067292;28;20282;-71
2023/10/23 02:25:12;;;;;;;;;;;;;;;-140.72;100.00;60741.34;5066182;28;19961;-71
2023/10/23 02:27:37;;;;;;;;;;;;;;;-140.72;100.00;60749.47;5071425;28;19921;-71
2023/10/23 02:30:03;;;;;;;;;;;;;;;-140.72;100.00;60741.34;5070216;28;20003;-71
2023/10/23 02:32:28;;;;;;;;;;;;;;;-140.72;100.00;60751.50;5069841;28;19999;-71
2023/10/23 02:34:55;;;;;;;;;;;;;;;-140.72;100.00;60749.47;5070392;28;20011;-71
2023/10/23 02:37:20;;;;;;;;;;;;;;;-140.72;100.00;60739.31;5071114;28;20319;-71
2023/10/23 02:39:45;;;;;;;;;;;;;;;-140.72;100.00;60777.94;5075396;28;19931;-71
2023/10/23 02:42:10;;;;;;;;;;;;;;;-140.72;100.00;60763.72;5069026;28;19923;-71
2023/10/23 02:44:35;;;;;;;;;;;;;;;-140.72;100.00;60792.19;5071917;28;19924;-71
2023/10/23 02:47:01;;;;;;;;;;;;;;;-140.72;100.00;60788.13;5076273;28;20015;-72
2023/10/23 02:49:26;;;;;;;;;;;;;;;-140.72;100.00;60820.66;5090016;28;20387;-71
2023/10/23 02:51:51;;;;;;;;;;;;;;;-140.72;100.00;60777.94;5075615;28;20006;-72
2023/10/23 02:54:16;;;;;;;;;;;;;;;-140.72;100.00;60814.56;5072694;28;19951;-72
2023/10/23 02:56:42;;;;;;;;;;;;;;;-140.72;100.00;60812.53;5076462;28;19916;-71
2023/10/23 02:59:07;;;;;;;;;;;;;;;-140.72;100.00;60845.06;5071027;28;19932;-72
2023/10/23 03:01:32;;;;;;;;;;;;;;;-140.72;100.00;60804.38;5071806;28;19960;-72
2023/10/23 03:03:57;;;;;;;;;;;;;;;-140.72;100.00;60834.88;5069910;28;19916;-71
2023/10/23 03:06:23;;;;;;;;;;;;;;;-140.72;100.00;60836.91;5067136;28;19966;-71
2023/10/23 03:08:48;;;;;;;;;;;;;;;-140.72;100.00;60816.59;5068358;28;20275;-71
2023/10/23 03:11:14;;;;;;;;;;;;;;;-140.72;100.00;60832.84;5069714;28;19923;-71
2023/10/23 03:13:39;;;;;;;;;;;;;;;-140.72;100.00;60818.63;5070398;28;19964;-72
2023/10/23 03:16:04;;;;;;;;;;;;;;;-140.72;100.00;60863.34;5075202;28;20112;-72
2023/10/23 03:18:29;;;;;;;;;;;;;;;-140.72;100.00;60826.75;5074870;28;19916;-72
2023/10/23 03:20:59;;;;;;;;;;;;;;;-140.72;100.00;60873.53;5073309;28;19921;-71
2023/10/23 03:23:24;;;;;;;;;;;;;;;-140.72;100.00;60857.25;5069296;28;20310;-72
2023/10/23 03:25:50;;;;;;;;;;;;;;;-140.72;100.00;60893.84;5073508;28;19928;-72
2023/10/23 03:28:15;;;;;;;;;;;;;;;-140.72;100.00;60906.06;5065925;28;19988;-72
2023/10/23 03:30:40;;;;;;;;;;;;;;;-140.72;100.00;60906.06;5074096;28;19924;-72
2023/10/23 03:33:05;;;;;;;;;;;;;;;-140.72;100.00;60942.66;5075522;28;19920;-72
2023/10/23 03:35:31;;;;;;;;;;;;;;;-140.72;100.00;60946.72;5075769;28;20006;-72
2023/10/23 03:37:56;;;;;;;;;;;;;;;-140.72;100.00;60981.28;5071656;28;20340;-72
2023/10/23 03:40:21;;;;;;;;;;;;;;;-140.72;100.00;61003.66;5075390;28;20359;-72
2023/10/23 03:42:50;;;;;;;;;;;;;;;-140.72;100.00;61005.69;5074565;28;20317;-71
2023/10/23 03:45:15;;;;;;;;;;;;;;;-140.72;100.00;61050.44;5074069;28;19921;-72
2023/10/23 03:47:40;;;;;;;;;;;;;;;-140.72;100.00;61036.19;5073584;28;19937;-72
2023/10/23 03:50:06;;;;;;;;;;;;;;;-140.72;100.00;61062.63;5074505;28;19925;-72
2023/10/23 03:52:31;;;;;;;;;;;;;;;-140.72;100.00;61093.13;5074842;28;20348;-72
2023/10/23 03:54:56;;;;;;;;;;;;;;;-140.72;100.00;61150.09;5074280;28;19921;-72
2023/10/23 03:57:21;;;;;;;;;;;;;;;-140.72;100.00;61121.59;5072928;28;19920;-72
2023/10/23 03:59:46;;;;;;;;;;;;;;;-140.72;100.00;61164.31;5072710;28;20405;-72
2023/10/23 04:02:12;;;;;;;;;;;;;;;-140.72;100.00;61186.69;5074130;28;20399;-72
2023/10/23 04:04:38;;;;;;;;;;;;;;;-140.72;100.00;61251.75;5071129;28;20023;-72
2023/10/23 04:07:04;;;;;;;;;;;;;;;-140.72;100.00;61276.16;5072349;28;19916;-72
2023/10/23 04:09:29;;;;;;;;;;;;;;;-140.72;100.00;61357.50;5074517;28;20280;-72
2023/10/23 04:11:54;;;;;;;;;;;;;;;-140.72;100.00;61306.66;5074188;28;20448;-72
2023/10/23 04:14:20;;;;;;;;;;;;;;;-140.72;100.00;61392.09;5076608;28;20007;-72
2023/10/23 04:16:45;;;;;;;;;;;;;;;-140.72;100.00;61414.47;5072765;28;19983;-72
2023/10/23 04:19:11;;;;;;;;;;;;;;;-140.72;100.00;61404.28;5073999;28;20395;-72
2023/10/23 04:21:39;;;;;;;;;;;;;;;-140.72;100.00;61477.50;5074054;28;19917;-72
2023/10/23 04:24:04;;;;;;;;;;;;;;;-140.72;100.00;61475.47;5071054;28;19917;-72
2023/10/23 04:26:30;;;;;;;;;;;;;;;-140.72;100.00;61471.41;5073753;28;20015;-72
2023/10/23 04:28:55;;;;;;;;;;;;;;;-140.72;100.00;61497.84;5072442;28;19928;-72
2023/10/23 04:31:20;;;;;;;;;;;;;;;-140.72;100.00;61520.22;5071297;28;20456;-72
2023/10/23 04:33:45;;;;;;;;;;;;;;;-140.72;100.00;61532.41;5073262;28;19921;-71
2023/10/23 04:36:10;;;;;;;;;;;;;;;-140.72;100.00;61583.25;5081333;28;19921;-72
2023/10/23 04:38:36;;;;;;;;;;;;;;;-140.72;100.00;61548.69;5078228;28;19920;-72
2023/10/23 04:41:01;;;;;;;;;;;;;;;-140.72;100.00;61540.56;5072852;28;19921;-72
2023/10/23 04:43:26;;;;;;;;;;;;;;;-140.72;100.00;61564.97;5066372;28;19974;-72
2023/10/23 04:45:55;;;;;;;;;;;;;;;-140.72;100.00;61589.38;5072550;28;19917;-72
2023/10/23 04:48:20;;;;;;;;;;;;;;;-140.72;100.00;61599.53;5073897;28;19916;-72
2023/10/23 04:50:45;;;;;;;;;;;;;;;-140.72;100.00;61577.16;5073224;28;19947;-71
2023/10/23 04:53:11;;;;;;;;;;;;;;;-140.72;100.00;61615.81;5068458;28;19973;-71
2023/10/23 04:55:38;;;;;;;;;;;;;;;-140.72;100.00;61630.03;5072593;28;19973;-72
2023/10/23 04:58:03;;;;;;;;;;;;;;;-140.72;100.00;61682.91;5069921;28;19921;-72
2023/10/23 05:00:29;;;;;;;;;;;;;;;-140.72;100.00;61691.06;5069102;28;19967;-72
2023/10/23 05:02:54;;;;;;;;;;;;;;;-140.72;100.00;61666.66;5072006;28;19920;-72
2023/10/23 05:05:20;;;;;;;;;;;;;;;-140.72;100.00;61727.66;5073141;28;19991;-72
2023/10/23 05:07:45;;;;;;;;;;;;;;;-140.72;100.00;61764.28;5072349;28;19930;-72
2023/10/23 05:10:11;;;;;;;;;;;;;;;-140.72;100.00;61731.72;5071454;28;20449;-72
2023/10/23 05:12:36;;;;;;;;;;;;;;;-140.72;100.00;61739.88;5072540;28;19924;-72
2023/10/23 05:15:02;;;;;;;;;;;;;;;-140.72;100.00;61792.75;5067772;28;19916;-71
2023/10/23 05:17:27;;;;;;;;;;;;;;;-140.72;100.00;61788.69;5075032;28;19981;-72
2023/10/23 05:19:53;;;;;;;;;;;;;;;-140.72;100.00;61807.00;5071465;28;19947;-72
2023/10/23 05:22:18;;;;;;;;;;;;;;;-140.72;100.00;61825.28;5066974;28;20055;-71
2023/10/23 05:24:46;;;;;;;;;;;;;;;-140.72;100.00;61841.56;5070780;28;19970;-72
2023/10/23 05:27:12;;;;;;;;;;;;;;;-140.72;100.00;61809.03;5070300;28;19928;-72
2023/10/23 05:29:37;;;;;;;;;;;;;;;-140.72;100.00;61863.94;5071134;28;20343;-75
2023/10/23 05:32:02;;;;;;;;;;;;;;;-140.72;100.00;61825.28;5071448;28;19921;-72
2023/10/23 05:34:28;;;;;;;;;;;;;;;-140.72;100.00;61833.44;5075255;28;19916;-74
2023/10/23 05:36:53;;;;;;;;;;;;;;;-140.72;100.00;61910.72;5067084;28;19916;-72
2023/10/23 05:39:18;;;;;;;;;;;;;;;-140.72;100.00;61882.25;5067881;28;20390;-72
2023/10/23 05:41:43;;;;;;;;;;;;;;;-140.72;100.00;61855.81;5070415;28;19921;-72
2023/10/23 05:44:08;;;;;;;;;;;;;;;-140.72;100.00;61896.47;5072596;28;19920;-73
2023/10/23 05:46:33;;;;;;;;;;;;;;;-140.72;100.00;61880.22;5072438;28;19935;-72
2023/10/23 05:48:59;;;;;;;;;;;;;;;-140.72;100.00;61888.34;5081867;28;19939;-72
2023/10/23 05:51:25;;;;;;;;;;;;;;;-140.72;100.00;61922.94;5072202;28;19920;-71
2023/10/23 05:53:50;;;;;;;;;;;;;;;-140.72;100.00;61908.69;5064499;28;19932;-72
2023/10/23 05:56:15;;;;;;;;;;;;;;;-140.72;100.00;61886.31;5070851;28;19924;-72
2023/10/23 05:58:40;;;;;;;;;;;;;;;-140.72;100.00;61927.00;5068643;28;19923;-73
2023/10/23 06:01:06;;;;;;;;;;;;;;;-140.72;100.00;61937.16;5068037;28;19961;-72
2023/10/23 06:03:31;;;;;;;;;;;;;;;-140.72;100.00;61945.31;5072516;28;19917;-72
2023/10/23 06:05:57;;;;;;;;;;;;;;;-140.72;100.00;61927.00;5079225;28;19917;-73
2023/10/23 06:08:22;;;;;;;;;;;;;;;-140.72;100.00;61927.00;5072047;28;19956;-73
2023/10/23 06:10:47;;;;;;;;;;;;;;;-140.72;100.00;61983.94;5069783;28;20003;-72
2023/10/23 06:13:12;;;;;;;;;;;;;;;-140.72;100.00;61971.75;5072226;28;19923;-73
2023/10/23 06:15:38;;;;;;;;;;;;;;;-140.72;100.00;61967.69;5073735;28;19916;-73
2023/10/23 06:18:03;;;;;;;;;;;;;;;-140.72;100.00;62004.28;5071372;28;19973;-72
2023/10/23 06:20:28;;;;;;;;;;;;;;;-140.72;100.00;61990.03;5092712;28;19961;-73
2023/10/23 06:22:53;;;;;;;;;;;;;;;-140.72;100.00;61985.97;5074894;28;19942;-74
2023/10/23 06:25:18;;;;;;;;;;;;;;;-140.72;100.00;62006.31;5071771;28;19992;-71
2023/10/23 06:27:44;;;;;;;;;;;;;;;-140.72;100.00;61996.16;5077036;28;20435;-75
2023/10/23 06:30:09;;;;;;;;;;;;;;;-140.72;100.00;61996.16;5076761;28;20351;-74
2023/10/23 06:32:34;;;;;;;;;;;;;;;-140.72;100.00;62036.84;5072598;28;19920;-74
2023/10/23 06:35:00;;;;;;;;;;;;;;;-140.72;100.00;62077.50;5059527;28;20305;-73
2023/10/23 06:37:25;;;;;;;;;;;;;;;-140.72;100.00;62055.13;5069100;28;19925;-72
2023/10/23 06:39:50;;;;;;;;;;;;;;;-140.72;100.00;62049.03;5066729;28;19920;-74
2023/10/23 06:42:16;;;;;;;;;;;;;;;-140.72;100.00;62075.47;5059028;28;20361;-74
2023/10/23 06:44:41;;;;;;;;;;;;;;;-140.72;100.00;62089.72;5070820;28;20312;-74
2023/10/23 06:47:07;;;;;;;;;;;;;;;-140.72;100.00;62128.38;5081657;28;20408;-74
2023/10/23 06:49:32;;;;;;;;;;;;;;;-140.72;100.00;62114.13;5077547;28;19924;-75
2023/10/23 06:51:57;;;;;;;;;;;;;;;-140.72;100.00;62132.44;5066326;28;20038;-73
2023/10/23 06:54:23;;;;;;;;;;;;;;;-140.72;100.00;62171.06;5070046;28;19924;-72
2023/10/23 06:56:49;;;;;;;;;;;;;;;-140.72;100.00;62152.78;5079906;28;19957;-73
2023/10/23 06:59:14;;;;;;;;;;;;;;;-140.72;100.00;62173.13;5073763;28;19921;-76
2023/10/23 07:01:39;;;;;;;;;;;;;;;-140.72;100.00;62195.50;5063668;28;20418;-73
2023/10/23 07:04:04;;;;;;;;;;;;;;;-140.72;100.00;62199.56;5064139;28;19920;-72
2023/10/23 07:06:29;;;;;;;;;;;;;;;-140.72;100.00;62179.22;5073433;28;19968;-73
2023/10/23 07:08:55;;;;;;;;;;;;;;;-140.72;100.00;62154.81;5074094;28;19976;-74
2023/10/23 07:11:21;;;;;;;;;;;;;;;-140.72;100.00;62179.22;5069669;28;19921;-72
2023/10/23 07:13:46;;;;;;;;;;;;;;;-140.72;100.00;62175.16;5060434;28;19935;-73
2023/10/23 07:16:12;;;;;;;;;;;;;;;-140.72;100.00;62167.00;5064412;28;20282;-73
2023/10/23 07:18:37;;;;;;;;;;;;;;;-140.72;100.00;62195.50;5063761;28;19917;-73
2023/10/23 07:21:03;;;;;;;;;;;;;;;-140.72;100.00;62238.22;5069991;28;19921;-73
2023/10/23 07:23:31;;;;;;;;;;;;;;;-140.72;100.00;62201.59;5071978;28;19916;-72
2023/10/23 07:26:03;;;;;;;;;;;;;;;-140.72;100.00;62226.00;5070411;28;20401;-73
2023/10/23 07:28:29;;;;;;;;;;;;;;;-140.72;100.00;62256.50;5070081;28;19925;-73
2023/10/23 07:30:54;;;;;;;;;;;;;;;-140.72;100.00;62262.63;5073742;28;19920;-73
2023/10/23 07:33:19;;;;;;;;;;;;;;;-140.72;100.00;62226.00;5073488;28;19955;-72
2023/10/23 07:35:44;;;;;;;;;;;;;;;-140.72;100.00;62191.41;5073253;28;19940;-72
2023/10/23 07:38:09;;;;;;;;;;;;;;;-140.72;100.00;62252.44;5072149;28;20013;-72
2023/10/23 07:40:41;;;;;;;;;;;;;;;-140.72;100.00;62256.50;5070022;28;19921;-73
2023/10/23 07:43:06;;;;;;;;;;;;;;;-140.72;100.00;62209.72;5073359;28;20291;-72
2023/10/23 07:45:36;;;;;;;;;;;;;;;-140.72;100.00;62252.44;5067093;28;19920;-72
2023/10/23 07:48:02;;;;;;;;;;;;;;;-140.72;100.00;62211.75;5069304;28;20425;-72
2023/10/23 07:50:27;;;;;;;;;;;;;;;-140.72;100.00;62232.09;5075119;28;20024;-74
2023/10/23 07:52:53;;;;;;;;;;;;;;;-140.72;100.00;62209.72;5070151;28;19921;-72
2023/10/23 07:55:18;;;;;;;;;;;;;;;-140.72;100.00;62181.25;5065416;28;19921;-76
2023/10/23 07:57:44;;;;;;;;;;;;;;;-140.72;100.00;62207.69;5064756;28;20371;-75
2023/10/23 08:00:10;;;;;;;;;;;;;;;-140.72;100.00;62191.41;5063246;28;20303;-74
2023/10/23 08:02:35;;;;;;;;;;;;;;;-140.72;100.00;62191.41;5079405;28;19972;-74
2023/10/23 08:05:00;;;;;;;;;;;;;;;-140.72;100.00;62203.63;5073322;28;19924;-71
2023/10/23 08:07:25;;;;;;;;;;;;;;;-140.72;100.00;62181.25;5078172;28;19920;-71
2023/10/23 08:09:50;;;;;;;;;;;;;;;-140.72;100.00;62144.63;5074906;28;19921;-71
2023/10/23 08:12:16;;;;;;;;;;;;;;;-140.72;100.00;62164.97;5074693;28;19936;-71
2023/10/23 08:14:41;;;;;;;;;;;;;;;-140.72;100.00;62142.59;5073227;28;19927;-71
2023/10/23 08:17:06;;;;;;;;;;;;;;;-140.72;100.00;62150.75;5075144;28;20005;-72
2023/10/23 08:19:31;;;;;;;;;;;;;;;-140.72;100.00;62118.19;5075457;28;19924;-71
2023/10/23 08:21:57;;;;;;;;;;;;;;;-140.72;100.00;62075.47;5071667;28;20016;-71
2023/10/23 08:24:22;;;;;;;;;;;;;;;-140.72;100.00;62073.44;5062403;28;19947;-71
2023/10/23 08:26:47;;;;;;;;;;;;;;;-140.72;100.00;62042.94;5068361;28;19924;-71
2023/10/23 08:29:12;;;;;;;;;;;;;;;-140.72;100.00;61983.94;5073854;28;19923;-71
2023/10/23 08:31:38;;;;;;;;;;;;;;;-140.72;100.00;61939.19;5069548;28;19921;-73
2023/10/23 08:34:03;;;;;;;;;;;;;;;-140.72;100.00;61896.47;5075172;28;19927;-72
2023/10/23 08:36:28;;;;;;;;;;;;;;;-140.72;100.00;61888.34;5074198;28;20370;-71
2023/10/23 08:38:54;;;;;;;;;;;;;;;-140.72;100.00;61896.47;5072957;28;19920;-71
2023/10/23 08:41:19;;;;;;;;;;;;;;;-140.72;100.00;61827.31;5076243;28;19927;-72
2023/10/23 08:43:44;;;;;;;;;;;;;;;-140.72;100.00;61809.03;5074243;28;20000;-72
2023/10/23 08:46:09;;;;;;;;;;;;;;;-140.72;100.00;61735.81;5073960;28;20055;-72
2023/10/23 08:48:37;;;;;;;;;;;;;;;-140.72;100.00;61682.91;5075239;28;19916;-72
2023/10/23 08:51:03;;;;;;;;;;;;;;;-140.72;100.00;61615.81;5074291;28;20347;-72
2023/10/23 08:53:38;;;;;;;;;;;;;;;-140.72;100.00;61571.06;5072205;28;20065;-72
2023/10/23 08:56:05;;;;;;;;;;;;;;;-140.72;100.00;61505.97;5062651;28;20019;-73
2023/10/23 08:58:31;;;;;;;;;;;;;;;-140.72;100.00;61467.34;5080562;28;19921;-73
2023/10/23 09:00:56;;;;;;;;;;;;;;;-140.72;100.00;61386.00;5072750;28;19999;-71
2023/10/23 09:03:23;;;;;;;;;;;;;;;-140.72;100.00;61292.44;5074070;28;19916;-73
2023/10/23 09:05:48;;;;;;;;;;;;;;;-140.72;100.00;61231.44;5082995;28;19916;-73
2023/10/23 09:08:13;;;;;;;;;;;;;;;-140.72;100.00;61205.00;5076203;28;20286;-70
2023/10/23 09:11:03;;;;;;;;;;;;;;;-140.72;100.00;61129.75;5074179;28;20228;-75
2023/10/23 09:13:32;;;;;;;;;;;;;;;-140.72;100.00;61089.06;5067313;28;20338;-71
2023/10/23 09:15:57;;;;;;;;;;;;;;;-140.72;100.00;61001.63;5071570;28;20305;-72
2023/10/23 09:18:23;;;;;;;;;;;;;;;-140.72;100.00;60942.66;5068532;28;19916;-73
2023/10/23 09:20:48;;;;;;;;;;;;;;;-140.72;100.00;60847.09;5066803;28;20448;-74
2023/10/23 09:23:13;;;;;;;;;;;;;;;-140.72;100.00;60763.72;5061170;28;20026;-73
2023/10/23 09:25:44;;;;;;;;;;;;;;;-140.72;100.00;60672.22;5071418;28;20402;-76
2023/10/23 09:28:10;;;;;;;;;;;;;;;-140.72;100.00;60645.78;5058562;28;19927;-73
2023/10/23 09:31:07;;;;;;;;;;;;;;;-140.72;100.00;60584.78;5082284;28;20022;-70
2023/10/23 09:33:33;;;;;;;;;;;;;;;-140.72;100.00;60519.72;5062199;28;19924;-71
2023/10/23 09:36:00;;;;;;;;;;;;;;;-140.72;100.00;60438.38;5071164;28;19917;-71
2023/10/23 09:38:25;;;;;;;;;;;;;;;-140.72;100.00;60324.53;5067495;28;20416;-71
2023/10/23 09:40:55;;;;;;;;;;;;;;;-140.72;100.00;60263.53;5061971;28;20023;-72
2023/10/23 09:43:21;;;;;;;;;;;;;;;-140.72;100.00;60265.56;5079392;28;19939;-70
2023/10/23 09:45:47;;;;;;;;;;;;;;;-140.72;100.00;60224.91;5073371;28;19940;-71
2023/10/23 09:48:12;;;;;;;;;;;;;;;-140.72;100.00;60222.88;5073396;28;19916;-71
2023/10/23 09:50:42;;;;;;;;;;;;;;;-140.72;100.00;60129.34;5091524;28;19994;-71
2023/10/23 09:53:09;;;;;;;;;;;;;;;-140.72;100.00;60084.63;5080711;28;20002;-71
2023/10/23 09:55:34;;;;;;;;;;;;;;;-140.72;100.00;60086.66;5079085;28;19927;-72
2023/10/23 09:58:04;;;;;;;;;;;;;;;-140.72;100.00;60009.41;5070045;28;19921;-73
2023/10/23 10:00:30;;;;;;;;;;;;;;;-140.72;100.00;59946.38;5071623;28;19951;-71
2023/10/23 10:02:58;;;;;;;;;;;;;;;-140.72;100.00;59885.38;5065120;28;19996;-71
2023/10/23 10:05:24;;;;;;;;;;;;;;;-140.72;100.00;59856.91;5066201;28;19973;-72
2023/10/23 10:07:55;;;;;;;;;;;;;;;-140.72;100.00;59800.00;5071840;28;19920;-74
2023/10/23 10:10:20;;;;;;;;;;;;;;;-140.72;100.00;59779.66;5083661;28;19985;-72
2023/10/23 10:12:46;;;;;;;;;;;;;;;-140.72;100.00;59767.47;5072709;28;20015;-75
2023/10/23 10:15:12;;;;;;;;;;;;;;;-140.72;100.00;59698.34;5071210;28;19916;-73
2023/10/23 10:17:38;;;;;;;;;;;;;;;-140.72;100.00;59629.25;5076622;28;19920;-72
2023/10/23 10:20:07;;;;;;;;;;;;;;;-140.72;100.00;59507.28;5071319;28;20236;-71
2023/10/23 10:22:38;;;;;;;;;;;;;;;-140.72;100.00;59513.38;5072560;28;19920;-71
2023/10/23 10:25:05;;;;;;;;;;;;;;;-140.72;100.00;59499.13;5061851;28;20321;-71
2023/10/23 10:27:30;;;;;;;;;;;;;;;-140.72;100.00;59436.13;5069446;28;19997;-71
2023/10/23 10:29:58;;;;;;;;;;;;;;;-140.72;100.00;59454.41;5069374;28;19990;-71
2023/10/23 10:32:23;;;;;;;;;;;;;;;-140.72;100.00;59381.25;5067227;28;19982;-71
2023/10/23 10:34:53;;;;;;;;;;;;;;;-140.72;100.00;59279.59;5059494;28;19917;-71
2023/10/23 10:37:20;;;;;;;;;;;;;;;-140.72;100.00;59212.53;5054261;28;20397;-71
2023/10/23 10:39:52;;;;;;;;;;;;;;;-140.72;100.00;59117.00;5067804;28;19938;-71
2023/10/23 10:42:28;;;;;;;;;;;;;;;-140.72;100.00;58986.91;5070192;28;19917;-71
2023/10/23 10:44:53;;;;;;;;;;;;;;;-140.72;100.00;58879.19;5071733;28;20299;-71
2023/10/23 10:47:19;;;;;;;;;;;;;;;-140.72;100.00;58708.47;5071978;28;19916;-71
2023/10/23 10:49:45;;;;;;;;;;;;;;;-140.72;100.00;58576.38;5071963;28;20012;-71
2023/10/23 10:52:35;;;;;;;;;;;;;;;-140.72;100.00;58489.00;5071971;28;20267;-71
2023/10/23 10:55:04;;;;;;;;;;;;;;;-140.72;100.00;58285.78;5070678;28;19935;-71
2023/10/23 10:57:30;;;;;;;;;;;;;;;-140.72;100.00;58072.41;5071632;28;19978;-71
2023/10/23 10:59:56;;;;;;;;;;;;;;;-140.72;100.00;57873.25;5072088;28;20357;-71
2023/10/23 11:02:24;;;;;;;;;;;;;;;-140.72;100.00;57735.09;5071820;28;19969;-71
2023/10/23 11:04:50;;;;;;;;;;;;;;;-140.72;100.00;57584.75;5070516;28;19970;-71
2023/10/23 11:07:19;;;;;;;;;;;;;;;-140.72;100.00;57529.88;5071531;28;19955;-69
2023/10/23 11:09:44;;;;;;;;;;;;;;;-140.72;100.00;57470.97;5071716;28;19956;-70
2023/10/23 11:12:09;;;;;;;;;;;;;;;-140.72;100.00;57393.75;5072306;28;19916;-70
2023/10/23 11:14:36;;;;;;;;;;;;;;;-140.72;100.00;57395.78;5073288;28;19924;-70
2023/10/23 11:17:03;;;;;;;;;;;;;;;-140.72;100.00;57397.81;5072610;28;19916;-71
2023/10/23 11:19:28;;;;;;;;;;;;;;;-140.72;100.00;57422.22;5091765;28;19923;-70
2023/10/23 11:22:12;;;;;;;;;;;;;;;-140.72;100.00;57383.59;5078782;28;20067;-70
2023/10/23 11:24:38;;;;;;;;;;;;;;;-140.72;100.00;57416.09;5064105;28;19929;-70
2023/10/23 11:27:07;;;;;;;;;;;;;;;-140.72;100.00;57412.03;5072535;28;19917;-69
2023/10/23 11:29:39;;;;;;;;;;;;;;;-140.72;100.00;57365.31;5073760;28;19920;-69
2023/10/23 11:32:05;;;;;;;;;;;;;;;-140.72;100.00;57251.53;5072820;28;19935;-69
2023/10/23 11:34:31;;;;;;;;;;;;;;;-140.72;100.00;57219.03;5083227;28;19917;-69
2023/10/23 11:36:56;;;;;;;;;;;;;;;-140.72;100.00;57206.84;5086976;28;19959;-69
2023/10/23 11:39:21;;;;;;;;;;;;;;;-140.72;100.00;57219.03;5089442;28;19951;-70
2023/10/23 11:41:54;;;;;;;;;;;;;;;-140.72;100.00;57296.25;5083723;28;19939;-69
2023/10/23 11:44:19;;;;;;;;;;;;;;;-140.72;100.00;57385.63;5078121;28;19916;-69
2023/10/23 11:46:44;;;;;;;;;;;;;;;-140.72;100.00;57401.88;5076988;28;20004;-70
2023/10/23 11:49:10;;;;;;;;;;;;;;;-140.72;100.00;57320.63;5075301;28;20227;-70
2023/10/23 11:51:35;;;;;;;;;;;;;;;-140.72;100.00;57328.75;5064672;28;20062;-70
2023/10/23 11:54:03;;;;;;;;;;;;;;;-140.72;100.00;57257.63;5075602;28;20367;-69
2023/10/23 11:56:29;;;;;;;;;;;;;;;-140.72;100.00;57225.13;5072356;28;20028;-70
2023/10/23 11:58:55;;;;;;;;;;;;;;;-140.72;100.00;57137.78;5074633;28;19917;-69
2023/10/23 12:01:20;;;;;;;;;;;;;;;-140.72;100.00;57113.41;5075220;28;19963;-70
2023/10/23 12:03:45;;;;;;;;;;;;;;;-140.72;100.00;57066.69;5063214;28;20294;-70
2023/10/23 12:06:10;;;;;;;;;;;;;;;-140.72;100.00;57026.03;5071678;28;19946;-70
2023/10/23 12:08:36;;;;;;;;;;;;;;;-140.72;100.00;56959.00;5074111;28;19923;-70
2023/10/23 12:11:02;;;;;;;;;;;;;;;-140.72;100.00;56871.66;5073221;28;19969;-71
2023/10/23 12:13:28;;;;;;;;;;;;;;;-140.72;100.00;56894.00;5073976;28;19920;-71